sensor_id;sensor_type;location;lat;lon;timestamp;pressure;altitude;pressure_sealevel;temperature;humidity
20368;BME280;10343;52.402;9.796;2023-02-22T00:01:54;101075.84;;;15.16;71.17
20368;BME280;10343;52.402;9.796;2023-02-22T00:04:48;101077.81;;;14.85;72.28
20368;BME280;10343;52.402;9.796;2023-02-22T00:07:16;101076.28;;;15.03;72.64
20368;BME280;10343;52.402;9.796;2023-02-22T00:09:46;101077.50;;;15.43;70.18
20368;BME280;10343;52.402;9.796;2023-02-22T00:12:15;101082.25;;;15.84;68.76
20368;BME280;10343;52.402;9.796;2023-02-22T00:14:43;101077.41;;;15.70;68.09
20368;BME280;10343;52.402;9.796;2023-02-22T00:17:10;101075.81;;;15.65;69.11
20368;BME280;10343;52.402;9.796;2023-02-22T00:19:39;101073.97;;;16.12;67.04
20368;BME280;10343;52.402;9.796;2023-02-22T00:22:08;101076.81;;;15.86;67.43
20368;BME280;10343;52.402;9.796;2023-02-22T00:24:35;101076.97;;;15.83;67.38
20368;BME280;10343;52.402;9.796;2023-02-22T00:27:03;101069.25;;;15.50;68.95
20368;BME280;10343;52.402;9.796;2023-02-22T00:29:31;101060.53;;;15.44;69.46
20368;BME280;10343;52.402;9.796;2023-02-22T00:32:00;101067.06;;;15.36;70.06
20368;BME280;10343;52.402;9.796;2023-02-22T00:34:28;101061.91;;;15.31;69.72
20368;BME280;10343;52.402;9.796;2023-02-22T00:36:56;101056.31;;;15.14;71.30
20368;BME280;10343;52.402;9.796;2023-02-22T00:39:25;101060.72;;;15.15;70.87
20368;BME280;10343;52.402;9.796;2023-02-22T00:41:53;101051.59;;;14.97;72.19
20368;BME280;10343;52.402;9.796;2023-02-22T00:44:21;101046.97;;;15.02;71.79
20368;BME280;10343;52.402;9.796;2023-02-22T00:46:49;101047.00;;;14.75;73.67
20368;BME280;10343;52.402;9.796;2023-02-22T00:49:17;101040.53;;;14.82;74.08
20368;BME280;10343;52.402;9.796;2023-02-22T00:51:48;101042.16;;;14.59;73.93
20368;BME280;10343;52.402;9.796;2023-02-22T00:54:16;101037.06;;;14.53;74.92
20368;BME280;10343;52.402;9.796;2023-02-22T00:56:47;101041.25;;;14.60;74.84
20368;BME280;10343;52.402;9.796;2023-02-22T00:59:16;101035.97;;;14.59;74.96
20368;BME280;10343;52.402;9.796;2023-02-22T01:01:44;101035.78;;;14.38;75.70
20368;BME280;10343;52.402;9.796;2023-02-22T01:04:11;101025.09;;;14.38;75.92
20368;BME280;10343;52.402;9.796;2023-02-22T01:06:39;101028.38;;;14.47;75.81
20368;BME280;10343;52.402;9.796;2023-02-22T01:09:07;101018.16;;;14.59;74.87
20368;BME280;10343;52.402;9.796;2023-02-22T01:11:35;101020.72;;;14.89;72.83
20368;BME280;10343;52.402;9.796;2023-02-22T01:14:07;101020.97;;;15.07;71.21
20368;BME280;10343;52.402;9.796;2023-02-22T01:16:37;101020.31;;;15.00;71.20
20368;BME280;10343;52.402;9.796;2023-02-22T01:19:05;101021.56;;;14.90;72.30
20368;BME280;10343;52.402;9.796;2023-02-22T01:21:32;101018.56;;;14.99;72.26
20368;BME280;10343;52.402;9.796;2023-02-22T01:24:00;101027.06;;;15.10;70.77
20368;BME280;10343;52.402;9.796;2023-02-22T01:26:28;101016.81;;;14.98;71.74
20368;BME280;10343;52.402;9.796;2023-02-22T01:28:56;101021.56;;;14.90;71.41
20368;BME280;10343;52.402;9.796;2023-02-22T01:31:26;101015.06;;;14.97;71.24
20368;BME280;10343;52.402;9.796;2023-02-22T01:33:54;101017.88;;;14.94;70.99
20368;BME280;10343;52.402;9.796;2023-02-22T01:36:22;101015.72;;;15.04;71.03
20368;BME280;10343;52.402;9.796;2023-02-22T01:38:50;101014.31;;;14.41;73.67
20368;BME280;10343;52.402;9.796;2023-02-22T01:41:19;101013.19;;;14.22;75.59
20368;BME280;10343;52.402;9.796;2023-02-22T01:43:48;101007.31;;;14.66;73.45
20368;BME280;10343;52.402;9.796;2023-02-22T01:46:20;101007.47;;;14.59;73.14
20368;BME280;10343;52.402;9.796;2023-02-22T01:48:53;101007.03;;;14.47;74.35
20368;BME280;10343;52.402;9.796;2023-02-22T01:51:26;100997.06;;;14.78;72.38
20368;BME280;10343;52.402;9.796;2023-02-22T01:53:58;101000.16;;;14.91;70.70
20368;BME280;10343;52.402;9.796;2023-02-22T01:56:29;100998.56;;;14.86;71.23
20368;BME280;10343;52.402;9.796;2023-02-22T01:59:00;100996.28;;;15.00;70.66
20368;BME280;10343;52.402;9.796;2023-02-22T02:01:29;100996.63;;;14.91;70.68
20368;BME280;10343;52.402;9.796;2023-02-22T02:04:01;101002.72;;;14.69;71.34
20368;BME280;10343;52.402;9.796;2023-02-22T02:06:32;100991.56;;;14.31;73.49
20368;BME280;10343;52.402;9.796;2023-02-22T02:09:04;100991.97;;;14.19;74.77
20368;BME280;10343;52.402;9.796;2023-02-22T02:11:37;100994.63;;;14.46;73.60
20368;BME280;10343;52.402;9.796;2023-02-22T02:14:08;100993.28;;;14.32;73.08
20368;BME280;10343;52.402;9.796;2023-02-22T02:16:39;100988.22;;;13.69;76.12
20368;BME280;10343;52.402;9.796;2023-02-22T02:19:15;100992.84;;;13.91;75.63
20368;BME280;10343;52.402;9.796;2023-02-22T02:25:23;100977.66;;;13.66;78.20
20368;BME280;10343;52.402;9.796;2023-02-22T02:28:37;100970.03;;;13.54;78.07
20368;BME280;10343;52.402;9.796;2023-02-22T02:31:36;100972.84;;;12.88;83.15
20368;BME280;10343;52.402;9.796;2023-02-22T02:34:14;100975.16;;;13.30;80.83
20368;BME280;10343;52.402;9.796;2023-02-22T02:36:55;100975.53;;;13.18;80.83
20368;BME280;10343;52.402;9.796;2023-02-22T02:39:27;100970.84;;;12.96;82.15
20368;BME280;10343;52.402;9.796;2023-02-22T02:41:57;100969.19;;;12.92;82.33
20368;BME280;10343;52.402;9.796;2023-02-22T02:44:32;100969.38;;;13.16;81.63
20368;BME280;10343;52.402;9.796;2023-02-22T02:47:04;100969.00;;;12.98;81.88
20368;BME280;10343;52.402;9.796;2023-02-22T02:49:38;100965.97;;;13.11;82.00
20368;BME280;10343;52.402;9.796;2023-02-22T02:52:11;100969.09;;;13.25;80.60
20368;BME280;10343;52.402;9.796;2023-02-22T02:54:40;100967.38;;;13.54;78.23
20368;BME280;10343;52.402;9.796;2023-02-22T02:57:08;100965.09;;;13.41;78.76
20368;BME280;10343;52.402;9.796;2023-02-22T02:59:37;100967.00;;;13.66;77.59
20368;BME280;10343;52.402;9.796;2023-02-22T03:02:19;100966.41;;;13.85;75.39
20368;BME280;10343;52.402;9.796;2023-02-22T03:05:03;100957.41;;;13.61;76.06
20368;BME280;10343;52.402;9.796;2023-02-22T03:07:44;100950.78;;;13.74;75.58
20368;BME280;10343;52.402;9.796;2023-02-22T03:10:38;100948.41;;;13.65;76.48
20368;BME280;10343;52.402;9.796;2023-02-22T03:13:14;100948.06;;;13.75;74.85
20368;BME280;10343;52.402;9.796;2023-02-22T03:15:51;100956.34;;;13.66;75.74
20368;BME280;10343;52.402;9.796;2023-02-22T03:18:27;100949.56;;;13.56;76.70
20368;BME280;10343;52.402;9.796;2023-02-22T03:21:07;100942.28;;;13.01;79.61
20368;BME280;10343;52.402;9.796;2023-02-22T03:23:43;100939.78;;;12.97;80.20
20368;BME280;10343;52.402;9.796;2023-02-22T03:26:14;100936.19;;;12.66;81.68
20368;BME280;10343;52.402;9.796;2023-02-22T03:28:53;100933.06;;;12.50;83.07
20368;BME280;10343;52.402;9.796;2023-02-22T03:31:26;100921.78;;;12.42;84.07
20368;BME280;10343;52.402;9.796;2023-02-22T03:33:59;100919.00;;;12.47;83.94
20368;BME280;10343;52.402;9.796;2023-02-22T03:36:34;100918.78;;;12.54;83.05
20368;BME280;10343;52.402;9.796;2023-02-22T03:39:06;100915.16;;;12.57;83.79
20368;BME280;10343;52.402;9.796;2023-02-22T03:41:36;100921.53;;;12.51;82.64
20368;BME280;10343;52.402;9.796;2023-02-22T03:44:08;100913.25;;;12.62;82.20
20368;BME280;10343;52.402;9.796;2023-02-22T03:46:39;100927.81;;;12.49;82.13
20368;BME280;10343;52.402;9.796;2023-02-22T03:49:11;100916.25;;;12.17;84.92
20368;BME280;10343;52.402;9.796;2023-02-22T03:51:43;100925.97;;;12.84;81.95
20368;BME280;10343;52.402;9.796;2023-02-22T03:54:11;100925.91;;;12.54;81.53
20368;BME280;10343;52.402;9.796;2023-02-22T03:56:48;100926.81;;;12.53;80.33
20368;BME280;10343;52.402;9.796;2023-02-22T03:59:20;100928.22;;;12.66;79.99
20368;BME280;10343;52.402;9.796;2023-02-22T04:01:53;100921.88;;;12.39;81.57
20368;BME280;10343;52.402;9.796;2023-02-22T04:04:22;100916.06;;;12.23;81.56
20368;BME280;10343;52.402;9.796;2023-02-22T04:06:52;100911.25;;;12.04;83.48
20368;BME280;10343;52.402;9.796;2023-02-22T04:09:20;100920.13;;;12.03;83.43
20368;BME280;10343;52.402;9.796;2023-02-22T04:11:48;100916.47;;;12.07;82.46
20368;BME280;10343;52.402;9.796;2023-02-22T04:14:16;100912.22;;;12.35;80.66
20368;BME280;10343;52.402;9.796;2023-02-22T04:16:43;100915.06;;;12.60;79.54
20368;BME280;10343;52.402;9.796;2023-02-22T04:19:11;100913.06;;;12.37;79.78
20368;BME280;10343;52.402;9.796;2023-02-22T04:21:39;100912.69;;;12.18;80.78
20368;BME280;10343;52.402;9.796;2023-02-22T04:24:15;100902.59;;;11.96;81.59
20368;BME280;10343;52.402;9.796;2023-02-22T04:26:43;100905.66;;;11.79;83.23
20368;BME280;10343;52.402;9.796;2023-02-22T04:29:11;100900.25;;;12.18;81.74
20368;BME280;10343;52.402;9.796;2023-02-22T04:31:42;100894.41;;;12.38;80.09
20368;BME280;10343;52.402;9.796;2023-02-22T04:34:10;100897.56;;;12.20;79.73
20368;BME280;10343;52.402;9.796;2023-02-22T04:36:39;100901.72;;;12.30;79.82
20368;BME280;10343;52.402;9.796;2023-02-22T04:39:10;100904.78;;;12.48;78.02
20368;BME280;10343;52.402;9.796;2023-02-22T04:41:39;100916.72;;;12.64;77.52
20368;BME280;10343;52.402;9.796;2023-02-22T04:44:07;100912.31;;;12.96;75.59
20368;BME280;10343;52.402;9.796;2023-02-22T04:46:35;100908.69;;;12.97;74.95
20368;BME280;10343;52.402;9.796;2023-02-22T04:49:03;100912.53;;;13.18;73.70
20368;BME280;10343;52.402;9.796;2023-02-22T04:51:34;100910.94;;;13.11;73.76
20368;BME280;10343;52.402;9.796;2023-02-22T04:54:07;100915.03;;;13.23;72.82
20368;BME280;10343;52.402;9.796;2023-02-22T04:56:37;100915.78;;;12.98;74.06
20368;BME280;10343;52.402;9.796;2023-02-22T04:59:06;100907.91;;;12.64;75.88
20368;BME280;10343;52.402;9.796;2023-02-22T05:01:36;100899.13;;;12.60;75.97
20368;BME280;10343;52.402;9.796;2023-02-22T05:04:05;100903.38;;;12.97;74.77
20368;BME280;10343;52.402;9.796;2023-02-22T05:06:33;100903.56;;;12.91;75.43
20368;BME280;10343;52.402;9.796;2023-02-22T05:09:01;100904.75;;;12.81;75.71
20368;BME280;10343;52.402;9.796;2023-02-22T05:11:29;100904.28;;;12.66;76.45
20368;BME280;10343;52.402;9.796;2023-02-22T05:13:57;100907.00;;;12.95;74.93
20368;BME280;10343;52.402;9.796;2023-02-22T05:16:26;100900.00;;;12.61;75.67
20368;BME280;10343;52.402;9.796;2023-02-22T05:18:54;100907.59;;;12.74;74.64
20368;BME280;10343;52.402;9.796;2023-02-22T05:21:22;100891.53;;;12.46;76.18
20368;BME280;10343;52.402;9.796;2023-02-22T05:23:50;100889.75;;;12.47;76.29
20368;BME280;10343;52.402;9.796;2023-02-22T05:26:17;100890.34;;;12.25;78.13
20368;BME280;10343;52.402;9.796;2023-02-22T05:28:45;100888.44;;;12.30;78.16
20368;BME280;10343;52.402;9.796;2023-02-22T05:31:13;100889.91;;;12.07;79.42
20368;BME280;10343;52.402;9.796;2023-02-22T05:33:42;100876.09;;;12.28;78.89
20368;BME280;10343;52.402;9.796;2023-02-22T05:36:10;100883.59;;;12.45;77.03
20368;BME280;10343;52.402;9.796;2023-02-22T05:38:38;100884.03;;;12.29;78.46
20368;BME280;10343;52.402;9.796;2023-02-22T05:41:10;100885.25;;;12.49;76.96
20368;BME280;10343;52.402;9.796;2023-02-22T05:43:38;100879.50;;;12.33;77.77
20368;BME280;10343;52.402;9.796;2023-02-22T05:46:07;100877.38;;;12.13;77.88
20368;BME280;10343;52.402;9.796;2023-02-22T05:48:34;100885.16;;;12.20;78.56
20368;BME280;10343;52.402;9.796;2023-02-22T05:51:04;100879.69;;;12.25;78.82
20368;BME280;10343;52.402;9.796;2023-02-22T05:53:32;100874.53;;;12.20;78.42
20368;BME280;10343;52.402;9.796;2023-02-22T05:55:59;100876.53;;;12.44;77.98
20368;BME280;10343;52.402;9.796;2023-02-22T05:58:27;100868.53;;;12.45;77.17
20368;BME280;10343;52.402;9.796;2023-02-22T06:00:55;100877.50;;;12.06;78.54
20368;BME280;10343;52.402;9.796;2023-02-22T06:03:23;100871.00;;;11.84;80.12
20368;BME280;10343;52.402;9.796;2023-02-22T06:05:51;100864.75;;;12.21;78.59
20368;BME280;10343;52.402;9.796;2023-02-22T06:08:20;100870.88;;;12.25;77.82
20368;BME280;10343;52.402;9.796;2023-02-22T06:10:47;100870.63;;;11.99;80.08
20368;BME280;10343;52.402;9.796;2023-02-22T06:13:15;100866.66;;;12.16;79.30
20368;BME280;10343;52.402;9.796;2023-02-22T06:15:43;100870.41;;;12.42;77.47
20368;BME280;10343;52.402;9.796;2023-02-22T06:18:11;100875.56;;;12.46;76.42
20368;BME280;10343;52.402;9.796;2023-02-22T06:20:38;100867.25;;;11.91;80.15
20368;BME280;10343;52.402;9.796;2023-02-22T06:23:06;100870.19;;;11.82;81.06
20368;BME280;10343;52.402;9.796;2023-02-22T06:25:36;100859.13;;;11.99;81.24
20368;BME280;10343;52.402;9.796;2023-02-22T06:28:03;100862.78;;;11.93;81.58
20368;BME280;10343;52.402;9.796;2023-02-22T06:30:31;100862.78;;;11.95;80.98
20368;BME280;10343;52.402;9.796;2023-02-22T06:32:59;100865.16;;;12.05;80.97
20368;BME280;10343;52.402;9.796;2023-02-22T06:35:27;100860.13;;;11.93;81.35
20368;BME280;10343;52.402;9.796;2023-02-22T06:37:55;100863.31;;;12.07;80.94
20368;BME280;10343;52.402;9.796;2023-02-22T06:40:23;100861.34;;;12.16;79.67
20368;BME280;10343;52.402;9.796;2023-02-22T06:42:57;100862.31;;;12.12;80.89
20368;BME280;10343;52.402;9.796;2023-02-22T06:45:25;100863.00;;;12.20;80.63
20368;BME280;10343;52.402;9.796;2023-02-22T06:47:53;100868.16;;;12.26;79.73
20368;BME280;10343;52.402;9.796;2023-02-22T06:50:23;100867.19;;;12.60;78.52
20368;BME280;10343;52.402;9.796;2023-02-22T06:52:51;100862.41;;;12.42;78.10
20368;BME280;10343;52.402;9.796;2023-02-22T06:55:20;100864.88;;;12.49;78.98
20368;BME280;10343;52.402;9.796;2023-02-22T06:57:49;100869.78;;;12.93;76.33
20368;BME280;10343;52.402;9.796;2023-02-22T07:00:20;100865.81;;;12.47;79.05
20368;BME280;10343;52.402;9.796;2023-02-22T07:02:48;100864.19;;;12.72;78.54
20368;BME280;10343;52.402;9.796;2023-02-22T07:05:18;100867.97;;;13.23;75.80
20368;BME280;10343;52.402;9.796;2023-02-22T07:07:47;100865.88;;;13.33;74.91
20368;BME280;10343;52.402;9.796;2023-02-22T07:10:18;100863.19;;;13.06;76.60
20368;BME280;10343;52.402;9.796;2023-02-22T07:12:46;100871.44;;;12.67;79.75
20368;BME280;10343;52.402;9.796;2023-02-22T07:15:14;100863.53;;;12.64;80.96
20368;BME280;10343;52.402;9.796;2023-02-22T07:17:45;100868.50;;;12.77;80.80
20368;BME280;10343;52.402;9.796;2023-02-22T07:20:12;100873.03;;;13.04;79.96
20368;BME280;10343;52.402;9.796;2023-02-22T07:22:40;100869.28;;;13.10;79.26
20368;BME280;10343;52.402;9.796;2023-02-22T07:25:09;100858.25;;;13.22;79.36
20368;BME280;10343;52.402;9.796;2023-02-22T07:27:38;100866.84;;;13.32;79.74
20368;BME280;10343;52.402;9.796;2023-02-22T07:30:09;100862.03;;;13.72;77.45
20368;BME280;10343;52.402;9.796;2023-02-22T07:32:42;100868.19;;;13.46;78.46
20368;BME280;10343;52.402;9.796;2023-02-22T07:35:15;100857.19;;;13.28;80.67
20368;BME280;10343;52.402;9.796;2023-02-22T07:37:43;100849.75;;;13.39;80.55
20368;BME280;10343;52.402;9.796;2023-02-22T07:40:11;100851.81;;;13.58;80.38
20368;BME280;10343;52.402;9.796;2023-02-22T07:42:52;100860.63;;;13.87;78.57
20368;BME280;10343;52.402;9.796;2023-02-22T07:45:21;100851.16;;;13.78;78.71
20368;BME280;10343;52.402;9.796;2023-02-22T07:47:50;100852.00;;;14.05;76.79
20368;BME280;10343;52.402;9.796;2023-02-22T07:50:21;100863.44;;;14.34;75.56
20368;BME280;10343;52.402;9.796;2023-02-22T07:52:51;100862.84;;;14.26;76.66
20368;BME280;10343;52.402;9.796;2023-02-22T07:55:21;100852.56;;;14.66;75.00
20368;BME280;10343;52.402;9.796;2023-02-22T07:57:51;100859.63;;;14.41;75.80
20368;BME280;10343;52.402;9.796;2023-02-22T08:00:22;100855.03;;;14.70;74.42
20368;BME280;10343;52.402;9.796;2023-02-22T08:06:21;100849.69;;;14.70;73.30
20368;BME280;10343;52.402;9.796;2023-02-22T08:08:51;100845.13;;;14.49;75.41
20368;BME280;10343;52.402;9.796;2023-02-22T08:11:19;100842.91;;;14.60;74.49
20368;BME280;10343;52.402;9.796;2023-02-22T08:13:46;100851.44;;;14.71;73.77
20368;BME280;10343;52.402;9.796;2023-02-22T08:16:14;100851.50;;;14.93;73.50
20368;BME280;10343;52.402;9.796;2023-02-22T08:18:42;100849.41;;;15.24;71.49
20368;BME280;10343;52.402;9.796;2023-02-22T08:21:10;100849.44;;;14.76;72.89
20368;BME280;10343;52.402;9.796;2023-02-22T08:23:39;100844.94;;;14.78;73.42
20368;BME280;10343;52.402;9.796;2023-02-22T08:26:08;100847.13;;;14.91;72.68
20368;BME280;10343;52.402;9.796;2023-02-22T08:28:41;100840.41;;;14.81;74.10
20368;BME280;10343;52.402;9.796;2023-02-22T08:31:08;100836.47;;;14.91;73.90
20368;BME280;10343;52.402;9.796;2023-02-22T08:33:36;100842.50;;;15.40;71.09
20368;BME280;10343;52.402;9.796;2023-02-22T08:36:04;100844.31;;;15.62;69.88
20368;BME280;10343;52.402;9.796;2023-02-22T08:38:32;100841.94;;;15.54;69.23
20368;BME280;10343;52.402;9.796;2023-02-22T08:41:02;100843.41;;;15.61;69.12
20368;BME280;10343;52.402;9.796;2023-02-22T08:43:29;100843.50;;;15.60;69.41
20368;BME280;10343;52.402;9.796;2023-02-22T08:45:57;100844.00;;;15.48;69.87
20368;BME280;10343;52.402;9.796;2023-02-22T08:48:26;100840.41;;;15.49;69.62
20368;BME280;10343;52.402;9.796;2023-02-22T08:50:54;100841.66;;;14.94;71.87
20368;BME280;10343;52.402;9.796;2023-02-22T08:53:24;100835.25;;;14.76;73.66
20368;BME280;10343;52.402;9.796;2023-02-22T08:55:52;100828.66;;;15.08;72.17
20368;BME280;10343;52.402;9.796;2023-02-22T08:58:21;100832.81;;;15.16;72.65
20368;BME280;10343;52.402;9.796;2023-02-22T09:00:49;100826.53;;;15.83;69.47
20368;BME280;10343;52.402;9.796;2023-02-22T09:03:17;100826.16;;;15.70;69.11
20368;BME280;10343;52.402;9.796;2023-02-22T09:05:45;100833.63;;;16.05;67.64
20368;BME280;10343;52.402;9.796;2023-02-22T09:08:14;100833.63;;;15.84;68.74
20368;BME280;10343;52.402;9.796;2023-02-22T09:10:42;100826.22;;;16.30;67.40
20368;BME280;10343;52.402;9.796;2023-02-22T09:13:11;100828.47;;;15.78;68.88
20368;BME280;10343;52.402;9.796;2023-02-22T09:15:41;100819.09;;;15.90;68.67
20368;BME280;10343;52.402;9.796;2023-02-22T09:18:11;100826.41;;;15.64;68.95
20368;BME280;10343;52.402;9.796;2023-02-22T09:20:40;100830.00;;;15.63;69.70
20368;BME280;10343;52.402;9.796;2023-02-22T09:23:08;100829.75;;;15.69;68.91
20368;BME280;10343;52.402;9.796;2023-02-22T09:25:36;100821.34;;;16.59;66.17
20368;BME280;10343;52.402;9.796;2023-02-22T09:28:06;100826.97;;;16.34;66.55
20368;BME280;10343;52.402;9.796;2023-02-22T09:30:35;100820.25;;;16.05;67.22
20368;BME280;10343;52.402;9.796;2023-02-22T09:33:06;100815.84;;;16.43;66.10
20368;BME280;10343;52.402;9.796;2023-02-22T09:35:35;100813.50;;;17.13;63.33
20368;BME280;10343;52.402;9.796;2023-02-22T09:38:08;100807.44;;;16.32;65.96
20368;BME280;10343;52.402;9.796;2023-02-22T09:40:39;100803.63;;;17.51;62.37
20368;BME280;10343;52.402;9.796;2023-02-22T09:43:31;100813.25;;;17.37;62.01
20368;BME280;10343;52.402;9.796;2023-02-22T09:46:12;100808.19;;;17.31;61.05
20368;BME280;10343;52.402;9.796;2023-02-22T09:48:55;100815.47;;;16.11;66.58
20368;BME280;10343;52.402;9.796;2023-02-22T09:51:27;100822.09;;;16.63;64.53
20368;BME280;10343;52.402;9.796;2023-02-22T09:53:59;100817.28;;;16.32;65.13
20368;BME280;10343;52.402;9.796;2023-02-22T09:56:29;100814.69;;;16.87;63.97
20368;BME280;10343;52.402;9.796;2023-02-22T09:59:00;100814.78;;;16.86;63.43
20368;BME280;10343;52.402;9.796;2023-02-22T10:01:32;100815.75;;;16.26;64.74
20368;BME280;10343;52.402;9.796;2023-02-22T10:04:09;100806.75;;;16.47;64.99
20368;BME280;10343;52.402;9.796;2023-02-22T10:06:41;100806.81;;;17.22;62.45
20368;BME280;10343;52.402;9.796;2023-02-22T10:09:11;100798.94;;;17.73;60.72
20368;BME280;10343;52.402;9.796;2023-02-22T10:11:49;100798.06;;;17.19;61.48
20368;BME280;10343;52.402;9.796;2023-02-22T10:14:36;100791.59;;;17.05;61.94
20368;BME280;10343;52.402;9.796;2023-02-22T10:17:15;100800.56;;;17.04;62.53
20368;BME280;10343;52.402;9.796;2023-02-22T10:19:55;100793.16;;;17.46;60.92
20368;BME280;10343;52.402;9.796;2023-02-22T10:22:38;100792.56;;;16.64;63.65
20368;BME280;10343;52.402;9.796;2023-02-22T10:25:11;100787.94;;;17.06;62.49
20368;BME280;10343;52.402;9.796;2023-02-22T10:27:47;100783.00;;;17.70;60.21
20368;BME280;10343;52.402;9.796;2023-02-22T10:30:21;100769.81;;;17.65;59.89
20368;BME280;10343;52.402;9.796;2023-02-22T10:32:54;100766.09;;;17.51;60.31
20368;BME280;10343;52.402;9.796;2023-02-22T10:35:29;100766.91;;;17.70;60.13
20368;BME280;10343;52.402;9.796;2023-02-22T10:38:05;100773.78;;;17.22;60.67
20368;BME280;10343;52.402;9.796;2023-02-22T10:40:39;100762.81;;;17.45;60.56
20368;BME280;10343;52.402;9.796;2023-02-22T10:43:10;100767.31;;;17.08;61.42
20368;BME280;10343;52.402;9.796;2023-02-22T10:45:38;100763.91;;;17.76;59.78
20368;BME280;10343;52.402;9.796;2023-02-22T10:48:09;100756.88;;;18.74;56.63
20368;BME280;10343;52.402;9.796;2023-02-22T10:50:41;100759.88;;;18.03;57.41
20368;BME280;10343;52.402;9.796;2023-02-22T10:53:09;100762.69;;;18.82;56.00
20368;BME280;10343;52.402;9.796;2023-02-22T10:56:08;100760.22;;;18.30;56.46
20368;BME280;10343;52.402;9.796;2023-02-22T10:58:46;100751.78;;;17.69;57.41
20368;BME280;10343;52.402;9.796;2023-02-22T11:01:24;100749.97;;;18.54;55.79
20368;BME280;10343;52.402;9.796;2023-02-22T11:03:58;100746.34;;;18.22;55.63
20368;BME280;10343;52.402;9.796;2023-02-22T11:06:28;100746.72;;;17.98;56.65
20368;BME280;10343;52.402;9.796;2023-02-22T11:09:06;100748.53;;;18.47;55.70
20368;BME280;10343;52.402;9.796;2023-02-22T11:11:36;100730.81;;;18.76;55.17
20368;BME280;10343;52.402;9.796;2023-02-22T11:14:05;100732.81;;;19.35;53.23
20368;BME280;10343;52.402;9.796;2023-02-22T11:16:38;100729.94;;;18.28;55.39
20368;BME280;10343;52.402;9.796;2023-02-22T11:19:18;100728.91;;;18.78;54.44
20368;BME280;10343;52.402;9.796;2023-02-22T11:21:52;100731.00;;;17.90;56.42
20368;BME280;10343;52.402;9.796;2023-02-22T11:24:22;100726.34;;;18.93;54.67
20368;BME280;10343;52.402;9.796;2023-02-22T11:27:00;100715.81;;;19.79;51.73
20368;BME280;10343;52.402;9.796;2023-02-22T11:29:30;100715.50;;;19.85;50.78
20368;BME280;10343;52.402;9.796;2023-02-22T11:32:01;100713.63;;;20.58;49.35
20368;BME280;10343;52.402;9.796;2023-02-22T11:34:33;100702.66;;;19.75;50.93
20368;BME280;10343;52.402;9.796;2023-02-22T11:37:31;100701.66;;;19.92;50.44
20368;BME280;10343;52.402;9.796;2023-02-22T11:40:07;100697.19;;;20.77;49.00
20368;BME280;10343;52.402;9.796;2023-02-22T11:42:38;100696.06;;;20.38;49.20
20368;BME280;10343;52.402;9.796;2023-02-22T11:45:13;100695.13;;;19.96;50.60
20368;BME280;10343;52.402;9.796;2023-02-22T11:47:51;100693.13;;;20.14;51.12
20368;BME280;10343;52.402;9.796;2023-02-22T11:50:25;100689.31;;;19.59;51.84
20368;BME280;10343;52.402;9.796;2023-02-22T11:53:21;100687.63;;;19.11;53.39
20368;BME280;10343;52.402;9.796;2023-02-22T11:56:06;100691.09;;;20.03;51.32
20368;BME280;10343;52.402;9.796;2023-02-22T11:58:42;100684.13;;;19.25;53.30
20368;BME280;10343;52.402;9.796;2023-02-22T12:01:19;100687.44;;;19.14;53.35
20368;BME280;10343;52.402;9.796;2023-02-22T12:04:03;100680.88;;;20.08;51.33
20368;BME280;10343;52.402;9.796;2023-02-22T12:06:47;100684.78;;;19.74;51.43
20368;BME280;10343;52.402;9.796;2023-02-22T12:09:25;100677.63;;;20.17;50.77
20368;BME280;10343;52.402;9.796;2023-02-22T12:12:07;100676.25;;;20.39;49.78
20368;BME280;10343;52.402;9.796;2023-02-22T12:14:45;100685.38;;;19.20;52.41
20368;BME280;10343;52.402;9.796;2023-02-22T12:17:24;100665.28;;;20.42;50.92
20368;BME280;10343;52.402;9.796;2023-02-22T12:19:59;100667.81;;;19.73;51.36
20368;BME280;10343;52.402;9.796;2023-02-22T12:22:35;100665.03;;;20.74;49.52
20368;BME280;10343;52.402;9.796;2023-02-22T12:25:17;100660.31;;;21.31;48.07
20368;BME280;10343;52.402;9.796;2023-02-22T12:27:50;100661.09;;;20.24;50.22
20368;BME280;10343;52.402;9.796;2023-02-22T12:30:22;100652.78;;;20.41;49.93
20368;BME280;10343;52.402;9.796;2023-02-22T12:32:57;100664.78;;;19.94;50.82
20368;BME280;10343;52.402;9.796;2023-02-22T12:35:27;100653.13;;;20.22;50.55
20368;BME280;10343;52.402;9.796;2023-02-22T12:38:00;100659.94;;;19.70;51.50
20368;BME280;10343;52.402;9.796;2023-02-22T12:40:38;100661.69;;;19.85;51.70
20368;BME280;10343;52.402;9.796;2023-02-22T12:43:15;100647.63;;;19.66;51.45
20368;BME280;10343;52.402;9.796;2023-02-22T12:45:47;100650.16;;;19.98;50.67
20368;BME280;10343;52.402;9.796;2023-02-22T12:48:26;100649.28;;;19.24;52.13
20368;BME280;10343;52.402;9.796;2023-02-22T12:51:03;100648.00;;;18.84;53.43
20368;BME280;10343;52.402;9.796;2023-02-22T12:53:37;100645.78;;;19.07;53.35
20368;BME280;10343;52.402;9.796;2023-02-22T12:56:16;100637.09;;;19.18;52.85
20368;BME280;10343;52.402;9.796;2023-02-22T12:58:50;100642.09;;;18.94;53.61
20368;BME280;10343;52.402;9.796;2023-02-22T13:01:22;100634.38;;;19.63;51.90
20368;BME280;10343;52.402;9.796;2023-02-22T13:03:53;100636.25;;;20.33;49.74
20368;BME280;10343;52.402;9.796;2023-02-22T13:06:37;100630.91;;;19.16;52.63
20368;BME280;10343;52.402;9.796;2023-02-22T13:09:24;100627.44;;;19.30;52.11
20368;BME280;10343;52.402;9.796;2023-02-22T13:12:08;100615.06;;;20.83;49.17
20368;BME280;10343;52.402;9.796;2023-02-22T13:14:48;100619.56;;;20.82;48.28
20368;BME280;10343;52.402;9.796;2023-02-22T13:17:27;100614.31;;;21.60;46.33
20368;BME280;10343;52.402;9.796;2023-02-22T13:20:02;100607.38;;;21.30;46.87
20368;BME280;10343;52.402;9.796;2023-02-22T13:22:43;100611.50;;;20.82;47.73